Terminal Aerodrome Forecast
Issued by NWS

Home | Current Version | Previous Version | Text Only | Print | Product List | Glossary On
Versions: 1 2 3 4 5 6 7 8 9 10 11 12 13 14 15
000
FTUS43 KEAX 251700
TAFSTJ
TAF
KSTJ 251720Z 2518/2618 01011KT P6SM OVC007
     FM252000 01014KT P6SM VCSH OVC015
     FM252300 01012KT P6SM VCSH OVC050
     FM260300 36008KT P6SM OVC050
     FM260800 35005KT P6SM SCT050=

USA.gov is the U.S. government's official web portal to all federal, state and local government web resources and services.